Time;durP1;ratioP1;P1;durP2;ratioP2;P2;SDS_P1;SDS_P2;PMS_P1;PMS_P2;Temp;Humidity;BMP_temperature;BMP_pressure;BME280_temperature;BME280_humidity;BME280_pressure;Samples;Min_cycle;Max_cycle;Signal;HPM_P1;HPM_P2
2022/04/12 00:00:09;;;;;;;;;;;12.90;71.70;13.30;99152.00;;;;347578;28;83141;-87
2022/04/12 00:00:21;;;;;;;;;;;12.90;71.60;13.30;99149.00;;;;345503;28;95096;-87
2022/04/12 00:00:33;;;;;;;;;;;12.90;71.60;13.30;99142.00;;;;346033;28;83459;-87
2022/04/12 00:00:44;;;;;;;;;;;12.90;71.30;13.20;99141.00;;;;345330;28;97254;-87
2022/04/12 00:00:56;;;;;;;;;;;12.90;71.40;13.30;99147.00;;;;346214;28;82395;-87
2022/04/12 00:01:08;;;;;;;;;;;12.90;71.40;13.30;99136.00;;;;346745;27;97321;-88
2022/04/12 00:01:20;;;;;;;;;;;12.90;71.50;13.30;99136.00;;;;347494;28;82436;-86
2022/04/12 00:01:33;;;;;;;;;;;12.90;71.40;13.30;99136.00;;;;346569;28;96738;-88
2022/04/12 00:01:47;;;;;;;;;;;12.90;71.50;13.30;99123.00;;;;346137;28;82375;-87
2022/04/12 00:01:59;;;;;;;;;;;12.90;71.30;13.30;99131.00;;;;346748;28;94011;-88
2022/04/12 00:02:11;;;;;;;;;;;12.90;71.00;13.30;99132.00;;;;344634;28;83461;-88
2022/04/12 00:02:23;;;;;;;;;;;12.90;71.10;13.30;99136.00;;;;345120;28;95601;-87
2022/04/12 00:02:35;;;;;;;;;;;12.90;71.20;13.30;99135.00;;;;347470;27;83231;-87
2022/04/12 00:02:47;;;;;;;;;;;12.90;71.20;13.30;99134.00;;;;345293;28;98384;-88
2022/04/12 00:02:59;;;;;;;;;;;12.90;71.20;13.30;99153.00;;;;346026;28;83513;-88
2022/04/12 00:03:11;;;;;;;;;;;12.90;71.40;13.30;99127.00;;;;346623;28;97505;-88
2022/04/12 00:03:23;;;;;;;;;;;12.90;71.10;13.30;99126.00;;;;346095;28;82553;-88
2022/04/12 00:03:35;;;;;;;;;;;12.90;71.00;13.30;99119.00;;;;345426;28;95602;-87
2022/04/12 00:03:47;;;;;;;;;;;12.90;70.70;13.40;99131.00;;;;347473;28;83520;-88
2022/04/12 00:04:02;;;;;;;;;;;13.00;71.00;13.30;99116.00;;;;345171;28;96512;-87
2022/04/12 00:04:14;;;;;;;;;;;12.90;71.10;13.30;99129.00;;;;347280;28;82378;-88
2022/04/12 00:04:25;;;;;;;;;;;12.90;70.90;13.30;99122.00;;;;348130;27;95804;-87
2022/04/12 00:04:37;;;;;;;;;;;12.90;71.00;13.30;99126.00;;;;347452;27;83400;-87
2022/04/12 00:04:49;;;;;;;;;;;12.90;71.20;13.30;99124.00;;;;345247;28;97959;-87
2022/04/12 00:05:01;;;;;;;;;;;12.90;70.90;13.30;99123.00;;;;348905;27;83302;-87
2022/04/12 00:05:33;;;;;;;;;;;13.00;70.80;13.30;99134.00;;;;347912;27;96510;-87
2022/04/12 00:05:45;;;;;;;;;;;12.90;70.80;13.40;99130.00;;;;348632;27;83488;-87
2022/04/12 00:05:57;;;;;;;;;;;12.90;71.00;13.30;99133.00;;;;346399;28;96795;-88
2022/04/12 00:06:09;;;;;;;;;;;12.90;70.80;13.30;99135.00;;;;344603;28;83422;-87
2022/04/12 00:06:21;;;;;;;;;;;12.90;70.80;13.30;99130.00;;;;345392;28;93064;-87
2022/04/12 00:06:32;;;;;;;;;;;12.90;70.70;13.30;99116.00;;;;344721;28;83465;-88
2022/04/12 00:06:44;;;;;;;;;;;12.90;71.20;13.30;99121.00;;;;345435;28;93779;-88
2022/04/12 00:06:56;;;;;;;;;;;12.90;70.30;13.30;99124.00;;;;347533;28;83371;-87
2022/04/12 00:07:08;;;;;;;;;;;12.90;70.20;13.30;99120.00;;;;346294;28;95187;-88
2022/04/12 00:07:20;;;;;;;;;;;13.00;70.30;13.30;99119.00;;;;346123;28;83528;-88
2022/04/12 00:07:32;;;;;;;;;;;12.90;70.50;13.30;99118.00;;;;345213;28;96806;-88
2022/04/12 00:07:43;;;;;;;;;;;12.90;70.40;13.30;99121.00;;;;348916;27;83396;-87
2022/04/12 00:07:55;;;;;;;;;;;12.90;70.50;13.30;99124.00;;;;346626;27;96402;-88
2022/04/12 00:08:07;;;;;;;;;;;12.90;70.60;13.20;99116.00;;;;346055;28;83473;-88
2022/04/12 00:08:19;;;;;;;;;;;12.90;70.80;13.20;99126.00;;;;348116;27;96392;-88
2022/04/12 00:08:31;;;;;;;;;;;12.90;70.70;13.20;99134.00;;;;345994;28;83487;-88
2022/04/12 00:08:42;;;;;;;;;;;12.90;70.50;13.20;99141.00;;;;346698;28;97175;-87
2022/04/12 00:08:54;;;;;;;;;;;12.90;70.40;13.30;99125.00;;;;347480;28;82451;-87
2022/04/12 00:09:06;;;;;;;;;;;12.90;70.10;13.30;99137.00;;;;345060;28;94773;-88
2022/04/12 00:09:18;;;;;;;;;;;12.90;69.80;13.30;99126.00;;;;344749;28;83553;-88
2022/04/12 00:09:30;;;;;;;;;;;12.90;68.80;13.30;99126.00;;;;346655;28;97272;-87
2022/04/12 00:09:41;;;;;;;;;;;12.90;68.50;13.40;99126.00;;;;346108;28;83404;-88
2022/04/12 00:09:53;;;;;;;;;;;12.90;68.50;13.40;99127.00;;;;345206;28;97044;-88
2022/04/12 00:10:06;;;;;;;;;;;12.90;68.30;13.40;99125.00;;;;347526;27;86062;-87
2022/04/12 00:10:17;;;;;;;;;;;12.90;68.30;13.40;99130.00;;;;343868;28;96600;-87
2022/04/12 00:10:29;;;;;;;;;;;13.00;68.30;13.30;99127.00;;;;346081;28;83446;-88
2022/04/12 00:10:41;;;;;;;;;;;13.00;67.90;13.40;99123.00;;;;345338;28;97301;-87
2022/04/12 00:10:53;;;;;;;;;;;13.00;67.60;13.40;99106.00;;;;346103;28;83420;-88
2022/04/12 00:11:05;;;;;;;;;;;13.00;67.30;13.40;99120.00;;;;345863;28;97317;-87
2022/04/12 00:11:17;;;;;;;;;;;13.00;67.20;13.40;99104.00;;;;346093;28;83592;-88
2022/04/12 00:11:29;;;;;;;;;;;13.00;67.20;13.40;99115.00;;;;345265;28;97033;-87
2022/04/12 00:11:42;;;;;;;;;;;13.00;67.40;13.40;99132.00;;;;348869;27;83294;-88
2022/04/12 00:11:53;;;;;;;;;;;13.00;67.70;13.40;99126.00;;;;348082;27;96160;-88
2022/04/12 00:12:06;;;;;;;;;;;13.00;67.90;13.40;99139.00;;;;348932;27;83250;-87
2022/04/12 00:12:18;;;;;;;;;;;13.00;67.90;13.40;99123.00;;;;346821;28;96544;-88
2022/04/12 00:12:30;;;;;;;;;;;13.00;67.90;13.40;99118.00;;;;347488;28;82480;-88
2022/04/12 00:12:41;;;;;;;;;;;13.00;68.10;13.30;99117.00;;;;343734;28;96517;-87
2022/04/12 00:12:54;;;;;;;;;;;13.00;68.10;13.30;99126.00;;;;347555;28;83273;-87
2022/04/12 00:13:06;;;;;;;;;;;13.00;68.00;13.30;99127.00;;;;346019;28;97810;-88
2022/04/12 00:13:18;;;;;;;;;;;13.00;68.20;13.40;99115.00;;;;347338;27;82620;-88
2022/04/12 00:13:30;;;;;;;;;;;13.00;68.20;13.30;99119.00;;;;343833;28;96074;-87
2022/04/12 00:13:41;;;;;;;;;;;13.00;68.20;13.40;99113.00;;;;346125;28;82546;-88
2022/04/12 00:13:53;;;;;;;;;;;13.00;68.20;13.30;99125.00;;;;345324;28;95628;-88
2022/04/12 00:14:05;;;;;;;;;;;13.00;68.20;13.40;99108.00;;;;344738;28;83440;-88
2022/04/12 00:14:17;;;;;;;;;;;13.00;68.30;13.40;99132.00;;;;346773;28;96638;-87
2022/04/12 00:14:29;;;;;;;;;;;13.00;68.40;13.30;99109.00;;;;347396;27;83281;-87
2022/04/12 00:14:41;;;;;;;;;;;13.00;68.30;13.30;99116.00;;;;343898;28;96877;-88
2022/04/12 00:14:53;;;;;;;;;;;13.00;68.40;13.30;99123.00;;;;344795;28;83218;-88
2022/04/12 00:15:05;;;;;;;;;;;13.00;68.60;13.40;99132.00;;;;345232;28;98317;-88
2022/04/12 00:15:17;;;;;;;;;;;13.00;68.30;13.40;99126.00;;;;346094;28;83521;-88
2022/04/12 00:15:29;;;;;;;;;;;13.00;68.30;13.30;99122.00;;;;348090;27;95321;-88
2022/04/12 00:15:41;;;;;;;;;;;13.00;68.40;13.40;99118.00;;;;346021;28;83448;-89
2022/04/12 00:15:53;;;;;;;;;;;13.00;68.50;13.30;99125.00;;;;345103;28;96396;-87
2022/04/12 00:16:04;;;;;;;;;;;13.00;68.60;13.30;99120.00;;;;348062;27;83515;-86
2022/04/12 00:16:16;;;;;;;;;;;13.00;68.50;13.30;99116.00;;;;345232;28;96906;-87
2022/04/12 00:16:28;;;;;;;;;;;13.00;68.50;13.30;99119.00;;;;348784;27;82506;-87
2022/04/12 00:16:40;;;;;;;;;;;13.00;68.60;13.40;99115.00;;;;346632;28;97029;-88
2022/04/12 00:19:02;;;;;;;;;;;13.00;68.70;13.40;99105.00;;;;346103;28;82349;-87
2022/04/12 00:19:04;;;;;;;;;;;13.00;69.00;13.30;99125.00;;;;347523;28;83283;-88
2022/04/12 00:19:15;;;;;;;;;;;13.00;69.00;13.40;99103.00;;;;348066;27;96911;-88
2022/04/12 00:19:27;;;;;;;;;;;13.00;68.90;13.40;99120.00;;;;345869;28;83409;-87
2022/04/12 00:19:39;;;;;;;;;;;13.00;69.00;13.30;99105.00;;;;343955;28;93789;-88
2022/04/12 00:19:52;;;;;;;;;;;13.00;68.90;13.30;99118.00;;;;346098;28;82336;-87
2022/04/12 00:20:04;;;;;;;;;;;13.00;69.00;13.30;99113.00;;;;345815;28;92645;-88
2022/04/12 00:20:16;;;;;;;;;;;13.00;69.10;13.40;99118.00;;;;344815;28;83406;-88
2022/04/12 00:20:28;;;;;;;;;;;13.00;69.20;13.30;99094.00;;;;346670;28;95246;-87
2022/04/12 00:20:40;;;;;;;;;;;13.00;69.30;13.30;99108.00;;;;346100;28;83185;-88
2022/04/12 00:20:54;;;;;;;;;;;13.00;69.20;13.30;99118.00;;;;346761;28;96449;-88
2022/04/12 00:21:06;;;;;;;;;;;13.00;69.10;13.40;99110.00;;;;344675;28;82386;-87
2022/04/12 00:21:18;;;;;;;;;;;13.00;69.10;13.30;99109.00;;;;345348;28;95793;-87
2022/04/12 00:21:34;;;;;;;;;;;13.00;69.20;13.30;99097.00;;;;346037;28;83352;-88
2022/04/12 00:21:47;;;;;;;;;;;13.00;69.20;13.40;99106.00;;;;348094;27;97057;-88
2022/04/12 00:21:58;;;;;;;;;;;13.00;68.90;13.30;99119.00;;;;347223;28;82517;-88
2022/04/12 00:22:10;;;;;;;;;;;13.00;68.90;13.30;99098.00;;;;346108;28;95369;-88
2022/04/12 00:22:22;;;;;;;;;;;13.00;68.80;13.30;99119.00;;;;344636;28;82505;-88
2022/04/12 00:22:34;;;;;;;;;;;13.00;68.70;13.30;99113.00;;;;345109;28;95529;-88
2022/04/12 00:22:46;;;;;;;;;;;13.00;68.90;13.30;99114.00;;;;347546;28;83269;-88
2022/04/12 00:22:58;;;;;;;;;;;12.90;69.30;13.30;99122.00;;;;343957;28;93005;-88
2022/04/12 00:23:14;;;;;;;;;;;12.90;69.20;13.30;99103.00;;;;347184;28;83429;-87
2022/04/12 00:23:26;;;;;;;;;;;12.90;69.30;13.30;99113.00;;;;345344;28;95909;-87
2022/04/12 00:23:37;;;;;;;;;;;12.90;69.50;13.30;99116.00;;;;347514;28;83343;-87
2022/04/12 00:23:49;;;;;;;;;;;12.90;69.60;13.30;99115.00;;;;343863;28;95866;-87
2022/04/12 00:24:04;;;;;;;;;;;12.90;69.40;13.30;99098.00;;;;344725;28;83417;-87
2022/04/12 00:24:16;;;;;;;;;;;12.90;69.50;13.20;99097.00;;;;346801;28;94318;-88
2022/04/12 00:24:28;;;;;;;;;;;12.90;69.30;13.30;99094.00;;;;347550;28;83304;-87
2022/04/12 00:24:40;;;;;;;;;;;12.90;69.40;13.30;99091.00;;;;346630;28;96867;-88
2022/04/12 00:24:52;;;;;;;;;;;12.90;69.40;13.30;99099.00;;;;346181;28;82334;-87
2022/04/12 00:25:06;;;;;;;;;;;12.90;69.60;13.30;99109.00;;;;344624;28;96534;-88
2022/04/12 00:25:19;;;;;;;;;;;12.90;69.50;13.20;99112.00;;;;345794;28;83622;-87
2022/04/12 00:25:30;;;;;;;;;;;12.90;69.50;13.20;99101.00;;;;343832;28;96867;-87
2022/04/12 00:25:45;;;;;;;;;;;12.90;69.30;13.30;99110.00;;;;347442;28;82443;-88
2022/04/12 00:25:57;;;;;;;;;;;12.90;69.30;13.20;99113.00;;;;346637;28;96838;-88
2022/04/12 00:26:08;;;;;;;;;;;12.90;69.50;13.20;99119.00;;;;350110;27;83458;-88
2022/04/12 00:26:20;;;;;;;;;;;12.90;69.70;13.20;99127.00;;;;345403;28;93880;-87
2022/04/12 00:26:32;;;;;;;;;;;12.90;69.50;13.20;99122.00;;;;347402;28;82596;-88
2022/04/12 00:26:44;;;;;;;;;;;12.90;69.60;13.30;99111.00;;;;345198;28;97731;-88
2022/04/12 00:26:56;;;;;;;;;;;12.90;69.60;13.30;99096.00;;;;347585;28;83408;-87
2022/04/12 00:27:07;;;;;;;;;;;12.90;69.50;13.20;99097.00;;;;348058;27;96570;-88
2022/04/12 00:27:19;;;;;;;;;;;12.90;70.20;13.20;99108.00;;;;348828;27;83468;-88
2022/04/12 00:27:31;;;;;;;;;;;12.90;69.70;13.20;99104.00;;;;348116;27;96642;-87
2022/04/12 00:27:43;;;;;;;;;;;12.90;69.70;13.20;99116.00;;;;348921;27;83429;-88
2022/04/12 00:27:56;;;;;;;;;;;12.90;69.90;13.20;99111.00;;;;347927;27;97323;-88
2022/04/12 00:28:08;;;;;;;;;;;12.90;69.90;13.20;99106.00;;;;347183;28;83463;-88
2022/04/12 00:28:20;;;;;;;;;;;12.90;69.90;13.30;99116.00;;;;345310;28;94269;-87
2022/04/12 00:28:31;;;;;;;;;;;12.90;69.90;13.30;99099.00;;;;346019;27;83415;-88
2022/04/12 00:28:43;;;;;;;;;;;12.90;69.90;13.30;99119.00;;;;345137;28;97436;-88
2022/04/12 00:28:55;;;;;;;;;;;12.90;69.90;13.30;99103.00;;;;347474;28;83363;-88
2022/04/12 00:29:07;;;;;;;;;;;12.90;69.70;13.30;99122.00;;;;346507;28;95698;-88
2022/04/12 00:29:20;;;;;;;;;;;12.90;69.90;13.30;99116.00;;;;347559;28;83412;-87
2022/04/12 00:29:33;;;;;;;;;;;12.90;69.70;13.20;99113.00;;;;349515;27;95813;-88
2022/04/12 00:29:45;;;;;;;;;;;12.90;69.50;13.20;99100.00;;;;346067;28;83520;-88
2022/04/12 00:29:57;;;;;;;;;;;12.90;69.70;13.20;99113.00;;;;349439;27;96421;-88
2022/04/12 00:30:09;;;;;;;;;;;12.90;69.60;13.30;99093.00;;;;348848;27;83416;-87
2022/04/12 00:30:22;;;;;;;;;;;12.90;69.50;13.20;99091.00;;;;346741;28;96492;-88
2022/04/12 00:30:34;;;;;;;;;;;12.90;69.10;13.20;99116.00;;;;347395;28;83308;-88
2022/04/12 00:30:46;;;;;;;;;;;12.90;69.00;13.20;99103.00;;;;346695;28;93883;-88
2022/04/12 00:30:58;;;;;;;;;;;12.90;68.80;13.20;99104.00;;;;347304;28;83339;-88
2022/04/12 00:31:10;;;;;;;;;;;12.90;68.70;13.20;99107.00;;;;346431;28;95693;-87
2022/04/12 00:31:22;;;;;;;;;;;12.90;68.70;13.20;99103.00;;;;346184;28;83414;-88
2022/04/12 00:31:34;;;;;;;;;;;12.90;68.80;13.20;99100.00;;;;344768;28;96580;-88
2022/04/12 00:31:46;;;;;;;;;;;12.90;68.90;13.20;99120.00;;;;344665;28;83517;-88
2022/04/12 00:31:58;;;;;;;;;;;12.90;69.60;13.20;99095.00;;;;343971;28;95257;-87
2022/04/12 00:32:09;;;;;;;;;;;12.90;69.00;13.20;99113.00;;;;347389;28;83481;-88
2022/04/12 00:32:21;;;;;;;;;;;12.90;69.30;13.20;99113.00;;;;347452;27;95593;-88
2022/04/12 00:32:33;;;;;;;;;;;12.90;69.40;13.20;99116.00;;;;348764;27;83442;-88
2022/04/12 00:32:45;;;;;;;;;;;12.90;69.50;13.20;99108.00;;;;347943;27;97001;-87
2022/04/12 00:32:57;;;;;;;;;;;12.90;68.90;13.20;99096.00;;;;347467;28;83258;-87
2022/04/12 00:33:08;;;;;;;;;;;12.90;69.10;13.20;99117.00;;;;348057;27;96264;-87
2022/04/12 00:33:20;;;;;;;;;;;12.90;69.20;13.20;99115.00;;;;347610;28;83457;-87
2022/04/12 00:33:32;;;;;;;;;;;12.90;69.50;13.20;99097.00;;;;345316;28;95499;-88
2022/04/12 00:33:44;;;;;;;;;;;12.90;69.40;13.20;99104.00;;;;347465;28;82369;-88
2022/04/12 00:33:56;;;;;;;;;;;12.90;69.50;13.20;99103.00;;;;346641;28;96576;-88
2022/04/12 00:34:07;;;;;;;;;;;12.90;69.50;13.20;99112.00;;;;344434;28;83716;-88
2022/04/12 00:34:19;;;;;;;;;;;12.80;69.40;13.20;99114.00;;;;345329;28;94124;-88
2022/04/12 00:34:31;;;;;;;;;;;12.80;69.40;13.10;99111.00;;;;346336;28;82419;-88
2022/04/12 00:34:43;;;;;;;;;;;12.80;69.40;13.20;99113.00;;;;346571;28;97361;-87
2022/04/12 00:34:54;;;;;;;;;;;12.80;69.40;13.20;99115.00;;;;347558;28;83257;-88
2022/04/12 00:35:07;;;;;;;;;;;12.80;69.50;13.20;99095.00;;;;348736;27;96549;-88
2022/04/12 00:35:20;;;;;;;;;;;12.80;69.60;13.20;99105.00;;;;348751;27;83409;-88
2022/04/12 00:35:32;;;;;;;;;;;12.80;69.60;13.20;99099.00;;;;343845;28;96742;-88
2022/04/12 00:35:43;;;;;;;;;;;12.80;69.50;13.20;99118.00;;;;347455;28;83324;-88
2022/04/12 00:35:58;;;;;;;;;;;12.80;69.60;13.20;99092.00;;;;346782;28;94454;-88
2022/04/12 00:36:10;;;;;;;;;;;12.80;69.50;13.20;99104.00;;;;344756;28;83430;-88
2022/04/12 00:36:21;;;;;;;;;;;12.80;69.60;13.20;99100.00;;;;346738;28;96617;-88
2022/04/12 00:36:34;;;;;;;;;;;12.80;69.70;13.10;99103.00;;;;348785;27;83363;-88
2022/04/12 00:36:46;;;;;;;;;;;12.80;69.60;13.20;99108.00;;;;350926;27;94154;-88
2022/04/12 00:36:58;;;;;;;;;;;12.80;69.80;13.20;99114.00;;;;347495;27;83341;-88
2022/04/12 00:37:10;;;;;;;;;;;12.80;69.80;13.10;99094.00;;;;347584;27;95887;-88
2022/04/12 00:37:21;;;;;;;;;;;12.80;69.80;13.10;99099.00;;;;347231;28;83489;-87
2022/04/12 00:37:33;;;;;;;;;;;12.80;69.80;13.10;99112.00;;;;345243;28;95432;-87
2022/04/12 00:37:46;;;;;;;;;;;12.80;69.80;13.10;99100.00;;;;347499;28;83434;-87
2022/04/12 00:37:57;;;;;;;;;;;12.80;69.80;13.10;99107.00;;;;345222;28;96163;-87
2022/04/12 00:38:21;;;;;;;;;;;12.80;69.90;13.20;99093.00;;;;347410;28;82585;-88
2022/04/12 00:38:35;;;;;;;;;;;12.80;69.30;13.10;99124.00;;;;345098;28;96612;-88
2022/04/12 00:38:47;;;;;;;;;;;12.80;69.20;13.20;99100.00;;;;344678;28;83468;-86
2022/04/12 00:38:59;;;;;;;;;;;12.80;69.30;13.10;99100.00;;;;346666;28;97442;-87
2022/04/12 00:39:11;;;;;;;;;;;12.80;69.00;13.10;99088.00;;;;346025;28;83324;-88
2022/04/12 00:39:23;;;;;;;;;;;12.80;68.90;13.20;99102.00;;;;346773;27;95317;-87
2022/04/12 00:39:34;;;;;;;;;;;12.80;69.00;13.10;99106.00;;;;347491;28;83351;-88
2022/04/12 00:39:46;;;;;;;;;;;12.80;68.90;13.20;99103.00;;;;345203;28;96781;-88
2022/04/12 00:39:58;;;;;;;;;;;12.80;68.90;13.10;99081.00;;;;347309;28;83434;-88
2022/04/12 00:40:10;;;;;;;;;;;12.80;69.10;13.10;99111.00;;;;346413;28;96674;-88
2022/04/12 00:40:24;;;;;;;;;;;12.80;69.10;13.10;99097.00;;;;346142;28;82420;-88
2022/04/12 00:40:36;;;;;;;;;;;12.80;69.20;13.10;99104.00;;;;346859;27;96411;-88
2022/04/12 00:40:53;;;;;;;;;;;12.80;69.20;13.10;99115.00;;;;347264;28;83363;-88
2022/04/12 00:41:07;;;;;;;;;;;12.80;69.40;13.10;99097.00;;;;345167;28;96228;-87
2022/04/12 00:41:20;;;;;;;;;;;12.80;69.50;13.10;99095.00;;;;346093;28;83520;-87
2022/04/12 00:41:35;;;;;;;;;;;12.80;69.30;13.10;99095.00;;;;345259;28;97099;-88
2022/04/12 00:41:47;;;;;;;;;;;12.80;69.40;13.10;99104.00;;;;346132;28;83473;-87
2022/04/12 00:41:59;;;;;;;;;;;12.80;69.50;13.10;99103.00;;;;346466;28;96645;-88
2022/04/12 00:42:10;;;;;;;;;;;12.80;69.60;13.10;99110.00;;;;344736;28;83940;-88
2022/04/12 00:42:22;;;;;;;;;;;12.80;69.80;13.10;99120.00;;;;346715;28;96366;-88
2022/04/12 00:42:34;;;;;;;;;;;12.80;69.80;13.10;99076.00;;;;348833;27;83393;-87
2022/04/12 00:42:46;;;;;;;;;;;12.80;69.70;13.10;99110.00;;;;348193;27;93910;-87
2022/04/12 00:42:58;;;;;;;;;;;12.80;69.80;13.10;99105.00;;;;345991;28;83383;-88
2022/04/12 00:43:10;;;;;;;;;;;12.80;69.90;13.10;99116.00;;;;344434;28;97507;-87
2022/04/12 00:43:26;;;;;;;;;;;12.80;69.80;13.10;99101.00;;;;345764;28;83542;-88
2022/04/12 00:43:38;;;;;;;;;;;12.80;70.10;13.10;99095.00;;;;343850;28;95144;-87
2022/04/12 00:43:50;;;;;;;;;;;12.70;70.00;13.10;99096.00;;;;347334;28;83279;-87
2022/04/12 00:44:02;;;;;;;;;;;12.80;70.00;13.10;99102.00;;;;343799;28;97169;-87
2022/04/12 00:44:14;;;;;;;;;;;12.80;70.10;13.10;99107.00;;;;343373;28;82554;-87
2022/04/12 00:44:25;;;;;;;;;;;12.80;70.30;13.10;99093.00;;;;345292;28;95551;-87
2022/04/12 00:44:37;;;;;;;;;;;12.70;70.30;13.00;99092.00;;;;346173;28;83239;-88
2022/04/12 00:44:49;;;;;;;;;;;12.80;70.40;13.10;99083.00;;;;346643;28;97052;-87
2022/04/12 00:45:01;;;;;;;;;;;12.80;70.10;13.10;99096.00;;;;346177;28;83347;-87
2022/04/12 00:45:12;;;;;;;;;;;12.70;70.10;13.00;99102.00;;;;346512;28;97190;-88
2022/04/12 00:45:24;;;;;;;;;;;12.70;70.20;13.00;99081.00;;;;348872;27;82545;-87
2022/04/12 00:45:36;;;;;;;;;;;12.70;70.10;13.10;99093.00;;;;344035;28;94143;-88
2022/04/12 00:45:48;;;;;;;;;;;12.70;70.50;13.00;99084.00;;;;344691;28;83301;-87
2022/04/12 00:46:02;;;;;;;;;;;12.70;70.40;13.10;99094.00;;;;347423;27;96467;-87
2022/04/12 00:46:14;;;;;;;;;;;12.70;70.50;13.10;99098.00;;;;346337;28;83306;-88
2022/04/12 00:46:26;;;;;;;;;;;12.70;70.50;13.00;99083.00;;;;348038;27;96464;-88
2022/04/12 00:46:38;;;;;;;;;;;12.70;70.40;13.00;99099.00;;;;345983;28;82497;-87
2022/04/12 00:46:50;;;;;;;;;;;12.70;70.30;13.00;99090.00;;;;343944;28;96585;-87
2022/04/12 00:47:02;;;;;;;;;;;12.70;70.50;13.10;99087.00;;;;344577;28;82482;-87
2022/04/12 00:47:14;;;;;;;;;;;12.70;70.50;13.10;99100.00;;;;343785;28;97698;-87
2022/04/12 00:47:26;;;;;;;;;;;12.70;70.50;13.00;99079.00;;;;346088;28;83373;-88
2022/04/12 00:47:39;;;;;;;;;;;12.70;70.50;13.10;99093.00;;;;343945;28;94199;-87
2022/04/12 00:47:51;;;;;;;;;;;12.70;70.70;13.00;99082.00;;;;348683;27;83564;-87
2022/04/12 00:48:03;;;;;;;;;;;12.70;70.60;13.00;99085.00;;;;348118;27;93795;-87
2022/04/12 00:48:14;;;;;;;;;;;12.70;70.80;13.00;99087.00;;;;344742;28;82373;-87
2022/04/12 00:48:27;;;;;;;;;;;12.70;70.80;13.00;99092.00;;;;346484;28;95627;-87
2022/04/12 00:48:39;;;;;;;;;;;12.70;70.90;13.10;99098.00;;;;347345;28;83279;-88
2022/04/12 00:48:51;;;;;;;;;;;12.70;70.90;13.10;99091.00;;;;348082;27;96889;-87
2022/04/12 00:49:03;;;;;;;;;;;12.70;71.00;13.00;99094.00;;;;346247;28;83661;-88
2022/04/12 00:49:14;;;;;;;;;;;12.70;71.30;13.00;99100.00;;;;347848;27;97892;-87
2022/04/12 00:49:26;;;;;;;;;;;12.70;71.10;13.00;99086.00;;;;347569;28;82382;-87
2022/04/12 00:49:38;;;;;;;;;;;12.70;71.20;13.00;99087.00;;;;344842;28;97161;-88
2022/04/12 00:49:49;;;;;;;;;;;12.70;71.20;13.00;99090.00;;;;346021;28;82456;-87
2022/04/12 00:50:02;;;;;;;;;;;12.70;71.20;13.00;99090.00;;;;345187;28;96161;-88
2022/04/12 00:50:13;;;;;;;;;;;12.70;71.00;13.00;99081.00;;;;347510;28;83485;-88
2022/04/12 00:50:25;;;;;;;;;;;12.70;70.80;13.00;99071.00;;;;345102;28;95616;-87
2022/04/12 00:50:37;;;;;;;;;;;12.70;70.90;13.00;99076.00;;;;347416;28;83359;-87
2022/04/12 00:50:49;;;;;;;;;;;12.70;70.80;13.00;99083.00;;;;349466;27;94764;-88
2022/04/12 00:51:01;;;;;;;;;;;12.70;70.80;13.00;99078.00;;;;345878;28;83933;-88
2022/04/12 00:51:12;;;;;;;;;;;12.70;71.00;13.00;99096.00;;;;345167;28;96295;-87
2022/04/12 00:51:25;;;;;;;;;;;12.70;71.00;13.00;99092.00;;;;347446;28;83529;-88
2022/04/12 00:51:36;;;;;;;;;;;12.60;71.20;13.00;99105.00;;;;344017;28;93787;-87
2022/04/12 00:51:48;;;;;;;;;;;12.70;71.30;12.90;99085.00;;;;346068;28;82434;-87
2022/04/12 00:52:00;;;;;;;;;;;12.60;71.20;13.00;99107.00;;;;345340;28;97521;-87
2022/04/12 00:52:12;;;;;;;;;;;12.60;71.20;13.00;99089.00;;;;348605;27;82525;-88
2022/04/12 00:52:24;;;;;;;;;;;12.60;71.20;12.90;99101.00;;;;345310;28;97086;-88
2022/04/12 00:52:41;;;;;;;;;;;12.60;71.50;12.90;99087.00;;;;345690;28;83484;-88
2022/04/12 00:52:53;;;;;;;;;;;12.60;71.50;12.90;99086.00;;;;343981;28;95427;-88
2022/04/12 00:53:05;;;;;;;;;;;12.60;71.40;12.90;99074.00;;;;344521;28;83517;-87
2022/04/12 00:53:17;;;;;;;;;;;12.60;71.40;13.00;99079.00;;;;345010;28;97517;-87
2022/04/12 00:53:29;;;;;;;;;;;12.60;71.40;12.90;99088.00;;;;347496;28;83412;-87
2022/04/12 00:53:41;;;;;;;;;;;12.60;71.50;13.00;99081.00;;;;346810;28;93892;-87
2022/04/12 00:53:52;;;;;;;;;;;12.60;71.40;12.90;99090.00;;;;348812;27;82618;-88
2022/04/12 00:54:05;;;;;;;;;;;12.60;71.60;13.00;99103.00;;;;346549;28;95441;-87
2022/04/12 00:54:19;;;;;;;;;;;12.60;71.60;13.00;99075.00;;;;347519;28;83944;-88
2022/04/12 00:54:32;;;;;;;;;;;12.60;70.80;13.00;99099.00;;;;345273;28;97020;-88
2022/04/12 00:54:44;;;;;;;;;;;12.60;71.00;13.00;99099.00;;;;350288;27;83278;-88
2022/04/12 00:54:56;;;;;;;;;;;12.60;71.00;13.00;99082.00;;;;346291;28;96712;-87
2022/04/12 00:55:08;;;;;;;;;;;12.60;70.90;13.00;99084.00;;;;349984;27;82587;-87
2022/04/12 00:55:19;;;;;;;;;;;12.60;70.90;13.00;99096.00;;;;346310;27;97199;-88
2022/04/12 00:55:31;;;;;;;;;;;12.60;71.00;13.00;99095.00;;;;345936;28;83393;-88
2022/04/12 00:55:43;;;;;;;;;;;12.60;71.10;13.00;99091.00;;;;346507;28;95684;-87
2022/04/12 00:55:55;;;;;;;;;;;12.60;71.20;13.00;99102.00;;;;347465;27;82574;-87
2022/04/12 00:56:07;;;;;;;;;;;12.60;71.30;12.90;99097.00;;;;348840;27;97381;-88
2022/04/12 00:56:19;;;;;;;;;;;12.60;71.30;13.00;99124.00;;;;347480;28;83447;-88
2022/04/12 00:56:30;;;;;;;;;;;12.60;71.30;13.00;99072.00;;;;346605;28;96427;-88
2022/04/12 00:56:42;;;;;;;;;;;12.60;71.20;13.00;99076.00;;;;348857;27;83390;-88
2022/04/12 00:56:54;;;;;;;;;;;12.60;70.60;13.00;99099.00;;;;347795;27;95554;-88
2022/04/12 00:57:06;;;;;;;;;;;12.60;70.70;13.00;99081.00;;;;350212;27;83909;-88
2022/04/12 00:57:18;;;;;;;;;;;12.60;70.90;13.00;99114.00;;;;346781;28;95241;-88
2022/04/12 00:57:31;;;;;;;;;;;12.60;71.00;13.00;99090.00;;;;347154;28;83565;-88
2022/04/12 00:57:42;;;;;;;;;;;12.60;71.20;12.90;99092.00;;;;346684;28;96455;-88
2022/04/12 00:57:54;;;;;;;;;;;12.60;71.30;12.90;99086.00;;;;348672;27;83501;-87
2022/04/12 00:58:07;;;;;;;;;;;12.60;71.40;13.00;99100.00;;;;345928;28;95293;-87
2022/04/12 00:58:19;;;;;;;;;;;12.60;71.50;13.00;99112.00;;;;345989;28;83445;-88
2022/04/12 00:58:31;;;;;;;;;;;12.60;71.60;12.90;99093.00;;;;346583;27;96272;-88
2022/04/12 00:58:46;;;;;;;;;;;12.60;71.70;12.90;99088.00;;;;346027;28;83483;-88
2022/04/12 00:59:02;;;;;;;;;;;12.60;71.60;12.90;99105.00;;;;343898;28;97192;-88
2022/04/12 00:59:14;;;;;;;;;;;12.60;71.60;12.90;99090.00;;;;343388;28;82443;-88
2022/04/12 00:59:26;;;;;;;;;;;12.60;71.60;12.90;99082.00;;;;343858;28;97263;-88
2022/04/12 00:59:37;;;;;;;;;;;12.60;71.40;12.90;99091.00;;;;344688;28;82474;-87
2022/04/12 00:59:51;;;;;;;;;;;12.60;71.40;12.90;99094.00;;;;345337;28;93158;-87
2022/04/12 01:00:07;;;;;;;;;;;12.60;71.50;12.90;99107.00;;;;347466;28;83355;-88
2022/04/12 01:00:19;;;;;;;;;;;12.60;71.60;12.90;99101.00;;;;346493;28;95584;-87
2022/04/12 01:00:31;;;;;;;;;;;12.60;71.70;12.90;99096.00;;;;347407;28;83434;-88
2022/04/12 01:00:43;;;;;;;;;;;12.60;71.80;12.90;99087.00;;;;343793;28;96802;-88
2022/04/12 01:00:55;;;;;;;;;;;12.60;71.60;12.90;99108.00;;;;347505;28;82518;-88
2022/04/12 01:01:07;;;;;;;;;;;12.50;71.60;12.90;99079.00;;;;348822;27;96249;-87
2022/04/12 01:01:19;;;;;;;;;;;12.50;71.60;12.90;99111.00;;;;347383;28;83540;-88
2022/04/12 01:01:31;;;;;;;;;;;12.50;71.80;12.90;99090.00;;;;345583;28;95322;-88
2022/04/12 01:01:43;;;;;;;;;;;12.60;71.70;12.90;99097.00;;;;347505;28;83503;-88
2022/04/12 01:01:55;;;;;;;;;;;12.60;71.70;12.90;99102.00;;;;342545;28;95543;-88
2022/04/12 01:02:07;;;;;;;;;;;12.60;71.70;12.90;99112.00;;;;346628;28;82769;-87
2022/04/12 01:02:19;;;;;;;;;;;12.50;71.70;12.90;99100.00;;;;344067;28;93852;-88
2022/04/12 01:02:34;;;;;;;;;;;12.50;71.90;12.90;99109.00;;;;347334;28;83520;-89
2022/04/12 01:02:46;;;;;;;;;;;12.50;72.00;12.90;99105.00;;;;345293;28;96612;-88